createdAt,value
2022-09-05T00:02:04.249Z,99.90
2022-09-05T00:04:42.088Z,99.90
2022-09-05T00:07:43.319Z,99.90
2022-09-05T00:10:12.559Z,99.90
2022-09-05T00:12:43.874Z,99.90
2022-09-05T00:15:39.441Z,99.90
2022-09-05T00:21:31.574Z,99.90
2022-09-05T00:24:31.895Z,99.90
2022-09-05T00:25:14.303Z,99.90
2022-09-05T00:28:25.371Z,99.90
2022-09-05T00:31:53.417Z,99.90
2022-09-05T00:34:20.749Z,99.90
2022-09-05T00:36:53.825Z,99.90
2022-09-05T00:39:36.011Z,99.90
2022-09-05T00:42:14.254Z,99.90
2022-09-05T00:45:02.888Z,99.90
2022-09-05T00:47:48.442Z,99.90
2022-09-05T00:50:25.808Z,99.90
2022-09-05T00:53:07.006Z,99.90
2022-09-05T00:55:38.119Z,99.90
2022-09-05T00:58:37.769Z,99.90
2022-09-05T01:01:26.177Z,99.90
2022-09-05T01:04:19.820Z,99.90
2022-09-05T01:07:21.046Z,99.90
2022-09-05T01:10:12.162Z,99.90
2022-09-05T01:13:22.629Z,99.90
2022-09-05T01:16:20.868Z,99.90
2022-09-05T01:19:09.379Z,99.90
2022-09-05T01:22:03.254Z,99.90
2022-09-05T01:24:45.622Z,99.90
2022-09-05T01:27:42.270Z,99.90
2022-09-05T01:30:42.871Z,99.90
2022-09-05T01:33:36.011Z,99.90
2022-09-05T01:36:40.808Z,99.90
2022-09-05T01:40:11.750Z,99.90
2022-09-05T01:42:53.635Z,99.90
2022-09-05T01:45:39.466Z,99.90
2022-09-05T01:48:16.842Z,99.90
2022-09-05T01:51:28.323Z,99.90
2022-09-05T01:54:25.267Z,99.90
2022-09-05T01:57:09.003Z,99.90
2022-09-05T01:59:39.393Z,99.90
2022-09-05T02:02:14.154Z,99.90
2022-09-05T02:05:09.444Z,99.90
2022-09-05T02:07:55.226Z,99.90
2022-09-05T02:10:40.731Z,99.90
2022-09-05T02:13:34.263Z,99.90
2022-09-05T02:16:17.827Z,99.90
2022-09-05T02:18:57.458Z,99.90
2022-09-05T02:21:36.690Z,99.90
2022-09-05T02:24:58.480Z,99.90
2022-09-05T02:28:05.651Z,99.90
2022-09-05T02:30:47.389Z,99.90
2022-09-05T02:33:38.183Z,99.90
2022-09-05T02:36:13.772Z,99.90
2022-09-05T02:45:08.182Z,99.90
2022-09-05T02:45:08.933Z,99.90
2022-09-05T02:45:27.537Z,99.90
2022-09-05T02:48:17.391Z,99.90
2022-09-05T02:57:28.482Z,99.90
2022-09-05T02:57:42.315Z,99.90
2022-09-05T02:57:47.030Z,99.90
2022-09-05T03:00:12.446Z,99.90
2022-09-05T03:02:43.229Z,99.90
2022-09-05T03:05:17.282Z,99.90
2022-09-05T03:07:59.814Z,99.90
2022-09-05T03:10:53.170Z,99.90
2022-09-05T03:14:01.694Z,99.90
2022-09-05T03:17:01.361Z,99.90
2022-09-05T03:19:50.714Z,99.90
2022-09-05T03:22:36.903Z,99.90
2022-09-05T03:25:41.611Z,99.90
2022-09-05T03:28:20.841Z,99.90
2022-09-05T03:31:17.522Z,99.90
2022-09-05T03:34:08.787Z,99.90
2022-09-05T03:36:51.207Z,99.90
2022-09-05T03:39:40.871Z,99.90
2022-09-05T03:42:19.368Z,99.90
2022-09-05T03:45:05.796Z,99.90
2022-09-05T03:48:02.183Z,99.90
2022-09-05T03:53:29.418Z,99.90
2022-09-05T03:57:13.120Z,99.90
2022-09-05T03:57:19.612Z,99.90
2022-09-05T03:59:50.655Z,99.90
2022-09-05T04:06:28.771Z,99.90
2022-09-05T04:08:26.895Z,99.90
2022-09-05T04:08:40.945Z,99.90
2022-09-05T04:11:45.069Z,99.90
2022-09-05T04:14:25.802Z,99.90
2022-09-05T04:16:59.723Z,99.90
2022-09-05T04:19:41.935Z,99.90
2022-09-05T04:22:40.967Z,99.90
2022-09-05T04:25:16.022Z,99.90
2022-09-05T04:28:13.376Z,99.90
2022-09-05T04:31:03.758Z,99.90
2022-09-05T04:33:54.373Z,99.90
2022-09-05T04:36:33.519Z,99.90
2022-09-05T04:39:18.918Z,99.90
2022-09-05T04:41:53.015Z,99.90
2022-09-05T04:44:27.631Z,99.90
2022-09-05T04:46:58.819Z,99.90
2022-09-05T04:49:30.311Z,99.90
2022-09-05T04:52:02.772Z,99.90
2022-09-05T04:54:45.352Z,99.90
2022-09-05T04:57:31.600Z,99.90
2022-09-05T05:05:58.863Z,99.90
2022-09-05T05:06:08.111Z,99.90
2022-09-05T05:06:31.550Z,99.90
2022-09-05T05:09:06.827Z,99.90
2022-09-05T05:16:39.793Z,99.90
2022-09-05T05:18:08.285Z,99.90
2022-09-05T05:18:16.392Z,99.90
2022-09-05T05:20:42.225Z,99.90
2022-09-05T05:23:16.768Z,99.90
2022-09-05T05:25:54.636Z,99.90
2022-09-05T05:28:28.218Z,99.90
2022-09-05T05:31:07.694Z,99.90
2022-09-05T05:33:37.733Z,99.90
2022-09-05T05:36:09.118Z,99.90
2022-09-05T05:38:58.702Z,99.90
2022-09-05T05:41:48.543Z,99.90
2022-09-05T05:44:26.478Z,99.90
2022-09-05T05:47:07.891Z,99.90
2022-09-05T05:50:01.303Z,99.90
2022-09-05T05:52:46.142Z,99.90
2022-09-05T05:55:52.042Z,99.90
2022-09-05T05:58:36.744Z,99.90
2022-09-05T06:01:37.934Z,99.90
2022-09-05T06:04:06.243Z,99.90
2022-09-05T06:06:53.125Z,99.90
2022-09-05T06:14:48.078Z,99.90
2022-09-05T06:14:57.018Z,99.90
2022-09-05T06:16:31.178Z,99.90
2022-09-05T06:19:17.550Z,99.90
2022-09-05T06:22:23.880Z,99.90
2022-09-05T06:25:26.966Z,99.90
2022-09-05T06:28:18.482Z,99.90
2022-09-05T06:30:57.209Z,99.90
2022-09-05T06:33:50.041Z,99.90
2022-09-05T06:36:39.289Z,99.90
2022-09-05T06:39:15.554Z,99.90
2022-09-05T06:42:28.667Z,99.90
2022-09-05T06:45:46.527Z,99.90
2022-09-05T06:48:46.475Z,99.90
2022-09-05T06:51:46.417Z,99.90
2022-09-05T06:54:49.047Z,99.90
2022-09-05T06:57:44.028Z,99.90
2022-09-05T07:00:48.700Z,99.90
2022-09-05T07:03:16.412Z,99.90
2022-09-05T07:05:56.600Z,99.90
2022-09-05T07:08:44.461Z,99.90
2022-09-05T07:11:23.142Z,99.90
2022-09-05T07:14:03.244Z,99.90
2022-09-05T07:16:41.867Z,99.90
2022-09-05T07:19:25.919Z,99.90
2022-09-05T07:22:46.143Z,99.90
2022-09-05T07:25:22.963Z,99.90
2022-09-05T07:28:29.009Z,99.90
2022-09-05T07:31:10.355Z,99.90
2022-09-05T07:33:40.014Z,99.90
2022-09-05T07:36:16.374Z,99.90
2022-09-05T07:39:02.372Z,99.90
2022-09-05T07:41:42.392Z,99.90
2022-09-05T07:44:18.346Z,99.90
2022-09-05T07:47:05.279Z,99.90
2022-09-05T07:49:39.906Z,99.90
2022-09-05T07:56:51.228Z,99.90
2022-09-05T07:57:02.243Z,99.90
2022-09-05T07:58:13.475Z,99.90
2022-09-05T08:00:43.101Z,99.90
2022-09-05T08:03:13.682Z,99.90
2022-09-05T08:05:45.731Z,99.90
2022-09-05T08:08:23.893Z,99.90
2022-09-05T08:11:24.358Z,99.90
2022-09-05T08:14:35.422Z,99.90
2022-09-05T08:16:44.946Z,99.90
2022-09-05T08:19:33.945Z,99.90
2022-09-05T08:22:03.417Z,99.90
2022-09-05T08:24:52.251Z,99.90
2022-09-05T08:27:50.339Z,99.90
2022-09-05T08:30:26.154Z,99.90
2022-09-05T08:33:11.464Z,99.90
2022-09-05T08:35:45.875Z,99.90
2022-09-05T08:38:15.583Z,99.90
2022-09-05T08:41:10.134Z,99.90
2022-09-05T08:46:40.346Z,99.90
2022-09-05T08:46:55.410Z,99.90
2022-09-05T08:49:37.874Z,99.90
2022-09-05T08:52:34.693Z,99.90
2022-09-05T08:55:09.951Z,99.90
2022-09-05T08:57:49.323Z,99.90
2022-09-05T09:00:24.340Z,99.90
2022-09-05T09:03:11.164Z,99.90
2022-09-05T09:06:15.070Z,99.90
2022-09-05T09:08:50.397Z,99.90
2022-09-05T09:11:26.727Z,99.90
2022-09-05T09:14:29.464Z,99.90
2022-09-05T09:17:15.486Z,99.90
2022-09-05T09:20:06.082Z,99.90
2022-09-05T09:22:39.551Z,99.90
2022-09-05T09:25:14.714Z,99.90
2022-09-05T09:28:48.150Z,99.90
2022-09-05T09:31:39.049Z,99.90
2022-09-05T09:34:33.137Z,99.90
2022-09-05T09:37:32.884Z,99.90
2022-09-05T09:40:22.384Z,99.90
2022-09-05T09:43:10.606Z,99.90
2022-09-05T09:45:53.348Z,99.90
2022-09-05T09:48:51.734Z,99.90
2022-09-05T09:51:26.963Z,99.90
2022-09-05T09:54:32.110Z,99.90
2022-09-05T09:57:27.475Z,99.10
2022-09-05T10:00:11.917Z,97.10
2022-09-05T10:07:31.785Z,97.60
2022-09-05T10:10:50.599Z,93.40
2022-09-05T10:11:23.798Z,91.90
2022-09-05T10:13:14.053Z,90.20
2022-09-05T10:16:22.166Z,87.30
2022-09-05T10:19:15.588Z,84.70
2022-09-05T10:24:54.491Z,79.10
2022-09-05T10:28:07.820Z,77.60
2022-09-05T10:32:25.956Z,75.80
2022-09-05T10:35:16.996Z,78.20
2022-09-05T10:37:05.394Z,74.30
2022-09-05T10:39:37.954Z,77.80
2022-09-05T10:42:22.395Z,79.10
2022-09-05T10:44:56.617Z,75.90
2022-09-05T10:47:57.386Z,74.00
2022-09-05T10:50:49.571Z,76.00
2022-09-05T10:53:17.209Z,77.40
2022-09-05T10:55:52.190Z,78.50
2022-09-05T10:59:22.057Z,79.10
2022-09-05T11:02:28.782Z,77.90
2022-09-05T11:04:58.971Z,75.50
2022-09-05T11:07:45.336Z,72.70
2022-09-05T11:10:20.379Z,67.10
2022-09-05T11:13:20.432Z,66.20
2022-09-05T11:16:16.441Z,64.00
2022-09-05T11:19:17.640Z,61.40
2022-09-05T11:22:06.504Z,63.00
2022-09-05T11:25:02.481Z,62.80
2022-09-05T11:27:35.779Z,60.80
2022-09-05T11:30:29.290Z,62.20
2022-09-05T11:39:51.960Z,59.70
2022-09-05T11:39:52.305Z,60.60
2022-09-05T11:40:28.870Z,59.90
2022-09-05T11:43:33.399Z,59.10
2022-09-05T11:46:25.639Z,54.90
2022-09-05T11:49:14.536Z,53.80
2022-09-05T11:52:03.775Z,53.90
2022-09-05T11:55:05.519Z,54.60
2022-09-05T11:57:53.002Z,55.40
2022-09-05T12:00:38.855Z,55.50
2022-09-05T12:03:57.134Z,53.40
2022-09-05T12:06:30.158Z,53.30
2022-09-05T12:09:10.033Z,53.60
2022-09-05T12:11:57.166Z,54.60
2022-09-05T12:14:54.823Z,54.70
2022-09-05T12:17:34.904Z,56.00
2022-09-05T12:20:17.257Z,55.80
2022-09-05T12:23:07.330Z,55.30
2022-09-05T12:27:39.806Z,55.70
2022-09-05T12:34:05.269Z,56.20
2022-09-05T12:36:12.351Z,54.60
2022-09-05T12:40:58.371Z,51.70
2022-09-05T12:42:10.289Z,50.70
2022-09-05T12:44:45.068Z,51.30
2022-09-05T12:47:21.120Z,49.70
2022-09-05T12:50:02.753Z,51.40
2022-09-05T12:52:33.773Z,51.10
2022-09-05T12:55:13.746Z,51.40
2022-09-05T13:02:57.505Z,51.60
2022-09-05T13:03:08.458Z,52.20
2022-09-05T13:03:53.349Z,52.40
2022-09-05T13:06:31.081Z,52.90
2022-09-05T13:10:04.702Z,52.60
2022-09-05T13:14:53.191Z,54.50
2022-09-05T13:15:23.587Z,53.90
2022-09-05T13:18:03.943Z,53.80
2022-09-05T13:20:34.962Z,55.00
2022-09-05T13:23:11.531Z,55.70
2022-09-05T13:25:43.961Z,56.30
2022-09-05T13:28:14.699Z,56.50
2022-09-05T13:34:37.790Z,57.00
2022-09-05T13:38:06.303Z,57.90
2022-09-05T13:38:12.202Z,58.80
2022-09-05T13:40:09.608Z,58.80
2022-09-05T13:42:45.086Z,58.80
2022-09-05T13:45:18.799Z,58.90
2022-09-05T13:48:05.137Z,59.20
2022-09-05T13:50:44.419Z,59.60
2022-09-05T13:53:15.306Z,60.30
2022-09-05T13:55:44.938Z,61.40
2022-09-05T13:58:24.242Z,62.30
2022-09-05T14:01:11.697Z,62.50
2022-09-05T14:03:55.798Z,62.90
2022-09-05T14:06:45.523Z,63.80
2022-09-05T14:09:36.664Z,64.20
2022-09-05T14:12:23.673Z,63.40
2022-09-05T14:15:13.706Z,64.40
2022-09-05T14:17:51.302Z,64.90
2022-09-05T14:20:43.234Z,65.50
2022-09-05T14:23:15.896Z,65.80
2022-09-05T14:26:04.954Z,66.60
2022-09-05T14:28:51.676Z,67.30
2022-09-05T14:37:11.357Z,68.40
2022-09-05T14:37:53.550Z,69.20
2022-09-05T14:38:14.245Z,70.10
2022-09-05T14:41:20.442Z,70.90
2022-09-05T14:44:15.722Z,71.80
2022-09-05T14:47:02.622Z,72.80
2022-09-05T14:50:03.650Z,74.30
2022-09-05T14:52:35.495Z,75.50
2022-09-05T15:02:41.910Z,84.20
2022-09-05T15:02:48.691Z,90.30
2022-09-05T15:06:35.751Z,95.30
2022-09-05T15:11:48.626Z,96.70
2022-09-05T15:12:21.594Z,97.80
2022-09-05T15:14:50.168Z,98.70
2022-09-05T15:17:24.550Z,98.70
2022-09-05T15:20:06.334Z,99.30
2022-09-05T15:22:37.872Z,99.60
2022-09-05T15:25:26.639Z,99.90
2022-09-05T15:27:55.203Z,99.90
2022-09-05T15:30:35.199Z,99.90
2022-09-05T15:33:26.932Z,99.90
2022-09-05T15:35:55.831Z,99.90
2022-09-05T15:38:54.836Z,99.90
2022-09-05T15:41:27.638Z,99.90
2022-09-05T15:43:58.424Z,99.90
2022-09-05T15:46:37.767Z,99.90
2022-09-05T15:49:33.187Z,99.90
2022-09-05T15:52:31.195Z,99.90
2022-09-05T15:55:28.138Z,99.90
2022-09-05T15:58:01.970Z,99.90
2022-09-05T16:00:32.619Z,99.90
2022-09-05T16:05:06.686Z,99.90
2022-09-05T16:10:29.713Z,99.90
2022-09-05T16:10:45.943Z,99.90
2022-09-05T16:12:16.224Z,99.90
2022-09-05T16:16:35.274Z,99.90
2022-09-05T16:23:16.741Z,99.90
2022-09-05T16:23:24.299Z,99.90
2022-09-05T16:23:41.573Z,99.90
2022-09-05T16:26:25.620Z,99.90
2022-09-05T16:29:05.844Z,99.90
2022-09-05T16:31:51.188Z,99.90
2022-09-05T16:34:50.366Z,99.90
2022-09-05T16:37:22.041Z,99.90
2022-09-05T16:40:18.633Z,99.90
2022-09-05T16:42:55.362Z,99.90
2022-09-05T16:45:43.268Z,99.90
2022-09-05T16:49:11.939Z,99.90
2022-09-05T16:51:39.878Z,99.90
2022-09-05T16:54:20.625Z,99.90
2022-09-05T16:56:53.844Z,99.90
2022-09-05T16:59:29.849Z,99.90
2022-09-05T17:02:06.624Z,99.90
2022-09-05T17:05:03.395Z,99.90
2022-09-05T17:07:42.559Z,99.90
2022-09-05T17:10:19.215Z,99.90
2022-09-05T17:12:54.862Z,99.90
2022-09-05T17:15:31.205Z,99.90
2022-09-05T17:18:21.513Z,99.90
2022-09-05T17:21:01.723Z,99.90
2022-09-05T17:29:24.740Z,99.90
2022-09-05T17:29:26.614Z,99.90
2022-09-05T17:32:38.378Z,99.90
2022-09-05T17:35:24.750Z,99.90
2022-09-05T17:38:12.101Z,99.90
2022-09-05T17:40:45.877Z,99.90
2022-09-05T17:43:29.199Z,99.90
2022-09-05T17:46:23.444Z,99.90
2022-09-05T17:49:13.419Z,99.90
2022-09-05T17:51:51.200Z,99.90
2022-09-05T17:54:33.644Z,99.90
2022-09-05T17:57:29.485Z,99.90
2022-09-05T18:00:00.982Z,99.90
2022-09-05T18:02:54.255Z,99.90
2022-09-05T18:06:03.691Z,99.90
2022-09-05T18:09:08.751Z,99.90
2022-09-05T18:11:44.589Z,99.90
2022-09-05T18:14:25.317Z,99.90
2022-09-05T18:17:36.014Z,99.90
2022-09-05T18:19:41.991Z,99.90
2022-09-05T18:22:28.637Z,99.90
2022-09-05T18:25:30.612Z,99.90
2022-09-05T18:28:16.929Z,99.90
2022-09-05T18:30:45.319Z,99.90
2022-09-05T18:33:54.480Z,99.90
2022-09-05T18:36:25.844Z,99.90
2022-09-05T18:39:27.384Z,99.90
2022-09-05T18:42:33.165Z,99.90
2022-09-05T18:45:14.819Z,99.90
2022-09-05T18:47:57.092Z,99.90
2022-09-05T18:50:32.474Z,99.90
2022-09-05T18:53:10.531Z,99.90
2022-09-05T18:56:21.085Z,99.90
2022-09-05T18:59:12.216Z,99.90
2022-09-05T19:01:58.622Z,99.90
2022-09-05T19:04:40.651Z,99.90
2022-09-05T19:07:22.347Z,99.90
2022-09-05T19:10:02.468Z,99.90
2022-09-05T19:13:08.307Z,99.90
2022-09-05T19:15:48.007Z,99.90
2022-09-05T19:18:26.274Z,99.90
2022-09-05T19:21:19.106Z,99.90
2022-09-05T19:23:54.517Z,99.90
2022-09-05T19:26:24.094Z,99.90
2022-09-05T19:36:55.713Z,99.90
2022-09-05T19:36:55.830Z,99.90
2022-09-05T19:37:14.565Z,99.90
2022-09-05T19:37:49.437Z,99.90
2022-09-05T19:47:25.508Z,99.90
2022-09-05T19:47:41.503Z,99.90
2022-09-05T19:47:44.055Z,99.90
2022-09-05T19:49:12.234Z,99.90
2022-09-05T19:51:41.553Z,99.90
2022-09-05T19:54:25.449Z,99.90
2022-09-05T19:57:07.126Z,99.90
2022-09-05T19:59:38.284Z,99.90
2022-09-05T20:02:15.437Z,99.90
2022-09-05T20:04:57.944Z,99.90
2022-09-05T20:07:29.295Z,99.90
2022-09-05T20:10:00.663Z,99.90
2022-09-05T20:12:29.913Z,99.90
2022-09-05T20:15:17.919Z,99.90
2022-09-05T20:17:46.113Z,99.90
2022-09-05T20:20:26.104Z,99.90
2022-09-05T20:23:07.349Z,99.90
2022-09-05T20:25:47.294Z,99.90
2022-09-05T20:28:18.690Z,99.90
2022-09-05T20:30:52.268Z,99.90
2022-09-05T20:33:26.071Z,99.90
2022-09-05T20:39:15.697Z,99.90
2022-09-05T20:43:24.166Z,99.90
2022-09-05T20:43:28.631Z,99.90
2022-09-05T20:44:55.586Z,99.90
2022-09-05T20:54:06.894Z,99.90
2022-09-05T20:54:21.353Z,99.90
2022-09-05T20:54:22.575Z,99.90
2022-09-05T20:56:23.632Z,99.90
2022-09-05T20:58:51.781Z,99.90
2022-09-05T21:01:23.733Z,99.90
2022-09-05T21:03:54.640Z,99.90
2022-09-05T21:06:33.457Z,99.90
2022-09-05T21:09:08.179Z,99.90
2022-09-05T21:11:36.053Z,99.90
2022-09-05T21:14:05.130Z,99.90
2022-09-05T21:16:42.809Z,99.90
2022-09-05T21:19:27.801Z,99.90
2022-09-05T21:22:07.274Z,99.90
2022-09-05T21:24:36.193Z,99.90
2022-09-05T21:27:24.040Z,99.90
2022-09-05T21:29:59.452Z,99.90
2022-09-05T21:32:38.030Z,99.90
2022-09-05T21:35:34.759Z,99.90
2022-09-05T21:38:01.654Z,99.90
2022-09-05T21:40:29.577Z,99.90
2022-09-05T21:47:33.845Z,99.90
2022-09-05T21:47:37.585Z,99.90
2022-09-05T21:48:37.870Z,99.90
2022-09-05T21:51:13.005Z,99.90
2022-09-05T21:56:01.127Z,99.90
2022-09-05T21:59:26.134Z,99.90
2022-09-05T21:59:41.450Z,99.90
2022-09-05T22:02:16.560Z,99.90
2022-09-05T22:04:44.399Z,99.90
2022-09-05T22:07:32.075Z,99.90
2022-09-05T22:10:06.513Z,99.90
2022-09-05T22:12:36.039Z,99.90
2022-09-05T22:15:27.329Z,99.90
2022-09-05T22:18:06.304Z,99.90
2022-09-05T22:20:51.201Z,99.90
2022-09-05T22:23:40.453Z,99.90
2022-09-05T22:26:08.159Z,99.90
2022-09-05T22:28:38.760Z,99.90
2022-09-05T22:31:07.677Z,99.90
2022-09-05T22:33:36.467Z,99.90
2022-09-05T22:36:04.962Z,99.90
2022-09-05T22:38:33.478Z,99.90
2022-09-05T22:41:01.135Z,99.90
2022-09-05T22:43:34.143Z,99.90
2022-09-05T22:46:01.846Z,99.90
2022-09-05T22:48:29.808Z,99.90
2022-09-05T22:50:57.524Z,99.90
2022-09-05T22:53:25.223Z,99.90
2022-09-05T22:56:08.137Z,99.90
2022-09-05T22:58:42.761Z,99.90
2022-09-05T23:01:11.665Z,99.90
2022-09-05T23:03:39.270Z,99.90
2022-09-05T23:06:10.351Z,99.90
2022-09-05T23:08:37.948Z,99.90
2022-09-05T23:11:10.728Z,99.90
2022-09-05T23:13:38.857Z,99.90
2022-09-05T23:16:06.946Z,99.90
2022-09-05T23:18:34.645Z,99.90
2022-09-05T23:21:04.247Z,99.90
2022-09-05T23:23:32.271Z,99.90
2022-09-05T23:26:04.561Z,99.90
2022-09-05T23:28:32.576Z,99.90
2022-09-05T23:31:01.137Z,99.90
2022-09-05T23:33:29.314Z,99.90
2022-09-05T23:36:08.327Z,99.90
2022-09-05T23:38:36.279Z,99.90
2022-09-05T23:41:08.633Z,99.90
2022-09-05T23:43:36.975Z,99.90
2022-09-05T23:46:05.106Z,99.90
2022-09-05T23:48:32.832Z,99.90
2022-09-05T23:51:09.485Z,99.90
2022-09-05T23:53:37.810Z,99.90
2022-09-05T23:56:08.154Z,99.90
2022-09-05T23:58:36.738Z,99.90
